Time;durP1;ratioP1;P1;durP2;ratioP2;P2;SDS_P1;SDS_P2;PMS_P1;PMS_P2;Temp;Humidity;BMP_temperature;BMP_pressure;BME280_temperature;BME280_humidity;BME280_pressure;Samples;Min_cycle;Max_cycle;Signal;HPM_P1;HPM_P2
2022/05/09 00:00:10;;;;;;;447.25;277.60;;;;;;;14.39;44.31;102343.53;688821;28;46180;-67
2022/05/09 00:00:34;;;;;;;448.40;282.70;;;;;;;14.38;44.67;102342.66;684636;28;161051;-68
2022/05/09 00:00:57;;;;;;;447.30;279.42;;;;;;;14.39;44.35;102332.66;688307;28;46402;-68
2022/05/09 00:01:19;;;;;;;445.23;271.65;;;;;;;14.40;44.33;102340.66;687165;28;92335;-68
2022/05/09 00:01:40;;;;;;;445.67;270.45;;;;;;;14.38;44.41;102336.38;688808;28;22364;-68
2022/05/09 00:02:02;;;;;;;447.20;273.23;;;;;;;14.38;44.38;102339.09;689422;28;21552;-68
2022/05/09 00:02:23;;;;;;;444.48;268.88;;;;;;;14.38;44.68;102339.09;688599;28;44147;-68
2022/05/09 00:02:45;;;;;;;445.73;276.20;;;;;;;14.37;44.79;102340.09;689653;28;21602;-68
2022/05/09 00:03:06;;;;;;;445.02;268.40;;;;;;;14.37;44.65;102338.25;688480;28;46246;-67
2022/05/09 00:03:27;;;;;;;449.75;288.10;;;;;;;14.39;44.80;102343.53;689300;28;22443;-68
2022/05/09 00:03:48;;;;;;;447.30;284.55;;;;;;;14.38;44.73;102334.50;689280;28;22393;-68
2022/05/09 00:04:10;;;;;;;451.55;296.45;;;;;;;14.38;44.44;102339.09;689067;28;21561;-68
2022/05/09 00:04:31;;;;;;;451.27;299.83;;;;;;;14.37;44.50;102331.97;688741;28;47105;-68
2022/05/09 00:04:52;;;;;;;449.98;297.63;;;;;;;14.34;44.69;102335.88;689677;28;21539;-68
2022/05/09 00:05:16;;;;;;;448.52;288.40;;;;;;;14.35;44.76;102340.28;689544;28;23478;-68
2022/05/09 00:05:38;;;;;;;452.00;308.15;;;;;;;14.35;44.88;102337.56;689741;28;90605;-68
2022/05/09 00:06:00;;;;;;;453.08;307.58;;;;;;;14.34;44.57;102333.16;691015;28;45842;-68
2022/05/09 00:06:24;;;;;;;454.67;312.13;;;;;;;14.34;44.56;102333.16;687874;28;106868;-68
2022/05/09 00:06:45;;;;;;;454.45;311.45;;;;;;;14.34;44.51;102332.28;691770;28;22411;-68
2022/05/09 00:07:07;;;;;;;454.80;317.40;;;;;;;14.32;44.60;102332.44;691655;28;23422;-67
2022/05/09 00:07:28;;;;;;;458.63;337.05;;;;;;;14.32;44.91;102332.44;690124;28;67653;-68
2022/05/09 00:07:49;;;;;;;466.10;379.48;;;;;;;14.29;44.91;102326.50;691980;28;22391;-68
2022/05/09 00:08:10;;;;;;;458.38;334.05;;;;;;;14.30;44.67;102331.75;691741;28;21537;-69
2022/05/09 00:08:32;;;;;;;454.17;317.02;;;;;;;14.30;44.97;102337.19;692065;28;22030;-68
2022/05/09 00:08:54;;;;;;;455.88;321.13;;;;;;;14.28;44.88;102339.25;690068;28;69440;-68
2022/05/09 00:09:16;;;;;;;464.40;370.60;;;;;;;14.26;44.86;102329.53;691444;28;22394;-68
2022/05/09 00:09:38;;;;;;;469.05;389.75;;;;;;;14.28;44.82;102333.81;690715;28;45246;-68
2022/05/09 00:10:00;;;;;;;467.25;381.90;;;;;;;14.27;44.79;102337.53;691066;28;46255;-67
2022/05/09 00:10:23;;;;;;;465.83;378.67;;;;;;;14.26;44.74;102334.97;690230;28;46363;-67
2022/05/09 00:10:44;;;;;;;458.85;335.17;;;;;;;14.27;45.03;102333.97;687269;28;68224;-68
2022/05/09 00:11:07;;;;;;;456.90;325.67;;;;;;;14.26;44.93;102332.25;688667;28;23758;-68
2022/05/09 00:11:30;;;;;;;456.83;321.75;;;;;;;14.27;44.81;102333.97;688288;28;92484;-68
2022/05/09 00:11:51;;;;;;;455.67;319.50;;;;;;;14.26;44.81;102333.09;691544;28;24349;-69
2022/05/09 00:12:12;;;;;;;453.15;310.23;;;;;;;14.27;44.83;102329.38;690885;28;43713;-67
2022/05/09 00:12:34;;;;;;;457.42;332.80;;;;;;;14.28;44.80;102336.53;692505;28;986;-68
2022/05/09 00:12:55;;;;;;;457.40;325.13;;;;;;;14.28;44.81;102339.25;690945;28;46326;-68
2022/05/09 00:13:16;;;;;;;460.50;343.65;;;;;;;14.25;44.83;102331.41;691114;28;21537;-68
2022/05/09 00:13:39;;;;;;;457.55;338.50;;;;;;;14.24;44.99;102333.25;687787;28;68672;-68
2022/05/09 00:14:00;;;;;;;454.05;318.42;;;;;;;14.26;45.10;102330.38;689270;28;22634;-68
2022/05/09 00:14:22;;;;;;;455.50;320.50;;;;;;;14.24;44.89;102335.13;689584;28;21592;-68
2022/05/09 00:14:43;;;;;;;453.92;310.48;;;;;;;14.23;45.12;102336.13;688407;28;44448;-68
2022/05/09 00:15:05;;;;;;;456.00;326.60;;;;;;;14.22;44.72;102337.16;689589;28;23476;-67
2022/05/09 00:15:28;;;;;;;465.50;371.80;;;;;;;14.19;44.82;102332.06;689958;28;1485;-69
2022/05/09 00:15:49;;;;;;;459.85;355.00;;;;;;;14.20;45.06;102337.34;688129;28;69430;-68
2022/05/09 00:16:12;;;;;;;452.40;308.90;;;;;;;14.20;45.16;102329.19;689465;28;22323;-68
2022/05/09 00:16:33;;;;;;;452.42;306.42;;;;;;;14.19;44.97;102334.78;687488;28;45267;-68
2022/05/09 00:16:56;;;;;;;452.60;307.83;;;;;;;14.18;44.90;102338.50;689488;28;22429;-68
2022/05/09 00:17:17;;;;;;;455.98;322.33;;;;;;;14.16;44.94;102335.09;687397;28;67544;-67
2022/05/09 00:17:38;;;;;;;458.02;329.85;;;;;;;14.16;44.98;102335.94;689623;28;23412;-68
2022/05/09 00:17:59;;;;;;;455.35;323.73;;;;;;;14.19;45.15;102338.34;689555;28;23476;-67
2022/05/09 00:18:21;;;;;;;457.00;328.55;;;;;;;14.19;44.89;102334.78;689384;28;22395;-68
2022/05/09 00:18:42;;;;;;;458.48;339.77;;;;;;;14.18;45.27;102335.78;688580;28;46279;-67
2022/05/09 00:19:05;;;;;;;460.65;352.52;;;;;;;14.18;44.91;102333.91;689418;28;23420;-68
2022/05/09 00:19:27;;;;;;;455.08;321.00;;;;;;;14.17;45.24;102331.34;687550;28;69759;-67
2022/05/09 00:19:48;;;;;;;462.25;351.80;;;;;;;14.18;45.03;102343.94;688026;28;45235;-68
2022/05/09 00:20:11;;;;;;;453.88;307.83;;;;;;;14.17;45.19;102336.78;688128;28;47455;-68
2022/05/09 00:20:32;;;;;;;456.67;325.70;;;;;;;14.16;44.92;102335.94;688476;28;46401;-68
2022/05/09 00:20:54;;;;;;;454.25;318.05;;;;;;;14.17;44.93;102337.66;689400;28;21533;-68
2022/05/09 00:21:15;;;;;;;456.70;328.30;;;;;;;14.18;45.05;102335.78;688554;28;46383;-68
2022/05/09 00:21:38;;;;;;;462.05;346.35;;;;;;;14.18;44.89;102336.63;687304;28;46339;-68
2022/05/09 00:21:59;;;;;;;454.60;311.42;;;;;;;14.13;45.06;102328.09;688345;28;46318;-68
2022/05/09 00:22:21;;;;;;;455.45;315.20;;;;;;;14.16;44.75;102335.09;688662;28;46330;-67
2022/05/09 00:22:44;;;;;;;456.58;326.73;;;;;;;14.12;45.14;102337.28;688547;28;46337;-67
2022/05/09 00:23:06;;;;;;;461.05;347.00;;;;;;;14.12;45.21;102342.72;687744;28;67487;-69
2022/05/09 00:23:27;;;;;;;462.88;354.70;;;;;;;14.08;44.94;102337.78;689564;28;20738;-67
2022/05/09 00:23:49;;;;;;;471.75;399.30;;;;;;;14.09;45.00;102345.78;689324;28;22376;-69
2022/05/09 00:24:14;;;;;;;466.60;362.17;;;;;;;14.09;45.33;102342.19;688545;28;45263;-67
2022/05/09 00:24:40;;;;;;;475.08;415.08;;;;;;;14.07;45.07;102345.06;685509;28;137640;-68
2022/05/09 00:25:02;;;;;;;472.65;395.58;;;;;;;14.05;45.39;102345.22;689288;28;22460;-68
2022/05/09 00:25:24;;;;;;;467.15;369.05;;;;;;;14.05;45.28;102342.50;688854;28;46326;-68
2022/05/09 00:25:46;;;;;;;470.40;381.70;;;;;;;14.05;45.42;102339.78;687348;28;69426;-68
2022/05/09 00:26:07;;;;;;;467.17;358.55;;;;;;;14.06;45.37;102343.38;689560;28;23238;-68
2022/05/09 00:26:31;;;;;;;464.30;348.67;;;;;;;14.06;45.32;102346.09;687000;28;67167;-68
2022/05/09 00:26:53;;;;;;;461.65;341.70;;;;;;;14.03;45.42;102341.81;687913;28;69521;-69
2022/05/09 00:27:14;;;;;;;462.27;341.77;;;;;;;14.04;45.51;102345.38;688633;28;46325;-68
2022/05/09 00:27:35;;;;;;;460.10;334.45;;;;;;;14.03;45.21;102338.25;689637;28;21507;-68
2022/05/09 00:27:57;;;;;;;469.38;380.23;;;;;;;14.03;45.49;102338.25;689402;28;22404;-68
2022/05/09 00:28:18;;;;;;;470.85;385.88;;;;;;;14.02;45.27;102337.38;688401;28;45226;-68
2022/05/09 00:28:40;;;;;;;462.95;341.40;;;;;;;14.01;45.50;102343.84;689628;28;22276;-67
2022/05/09 00:29:03;;;;;;;466.08;361.02;;;;;;;14.03;45.47;102346.41;689405;28;23463;-67
2022/05/09 00:29:25;;;;;;;468.20;375.83;;;;;;;13.99;45.42;102339.59;686745;28;92234;-68
2022/05/09 00:29:46;;;;;;;466.75;359.13;;;;;;;14.02;45.32;102347.41;687821;28;46408;-67
2022/05/09 00:30:08;;;;;;;465.98;353.67;;;;;;;14.01;45.42;102346.56;689260;28;21489;-68
2022/05/09 00:30:29;;;;;;;466.35;359.92;;;;;;;14.01;45.61;102343.84;688751;28;46732;-68
2022/05/09 00:30:51;;;;;;;468.75;376.60;;;;;;;14.00;45.47;102341.28;689354;28;23384;-67
2022/05/09 00:31:18;;;;;;;457.45;317.33;;;;;;;14.00;45.59;102344.84;685756;28;137818;-67
2022/05/09 00:31:40;;;;;;;467.52;366.90;;;;;;;13.98;45.23;102337.88;688026;28;45773;-68
2022/05/09 00:32:02;;;;;;;466.92;362.15;;;;;;;13.95;45.41;102343.63;688742;28;46368;-68
2022/05/09 00:32:24;;;;;;;466.80;363.83;;;;;;;13.94;45.67;102348.22;688545;28;45270;-68
2022/05/09 00:32:45;;;;;;;464.60;355.33;;;;;;;13.92;45.43;102335.78;688770;28;46341;-67
2022/05/09 00:33:06;;;;;;;469.40;378.17;;;;;;;13.92;45.76;102342.09;689193;28;21341;-68
2022/05/09 00:33:28;;;;;;;463.50;346.70;;;;;;;13.89;45.67;102339.69;689569;28;18106;-68
2022/05/09 00:33:52;;;;;;;466.15;356.75;;;;;;;13.89;45.75;102345.13;687747;28;56693;-68
2022/05/09 00:34:17;;;;;;;464.23;350.42;;;;;;;13.87;45.56;102342.56;686743;28;92254;-68
2022/05/09 00:34:38;;;;;;;467.42;370.92;;;;;;;13.87;45.60;102347.13;686866;28;92263;-68
2022/05/09 00:34:59;;;;;;;467.63;356.58;;;;;;;13.86;45.73;102342.72;689182;28;20089;-67
2022/05/09 00:35:21;;;;;;;485.65;419.13;;;;;;;13.84;45.67;102342.88;690461;28;23321;-67
2022/05/09 00:35:44;;;;;;;482.45;419.75;;;;;;;13.85;45.98;102339.13;690046;28;47038;-67
2022/05/09 00:36:06;;;;;;;467.98;371.08;;;;;;;13.87;45.70;102349.84;687820;28;69459;-68
2022/05/09 00:36:27;;;;;;;466.52;360.63;;;;;;;13.86;45.99;102343.56;687750;28;46255;-68
2022/05/09 00:36:52;;;;;;;464.38;347.55;;;;;;;13.85;45.91;102341.84;689625;28;25171;-68
2022/05/09 00:37:13;;;;;;;466.55;353.65;;;;;;;13.85;45.96;102344.56;685899;28;115101;-67
2022/05/09 00:37:34;;;;;;;471.48;389.35;;;;;;;13.82;45.98;102338.63;689387;28;21536;-68
2022/05/09 00:37:55;;;;;;;468.92;378.25;;;;;;;13.80;45.94;102338.78;689212;28;22384;-68
2022/05/09 00:38:17;;;;;;;467.88;375.38;;;;;;;13.80;45.88;102341.50;689217;28;22405;-67
2022/05/09 00:38:38;;;;;;;470.60;384.35;;;;;;;13.80;45.73;102338.78;688738;28;45642;-68
2022/05/09 00:39:01;;;;;;;470.30;378.20;;;;;;;13.79;45.94;102341.66;689328;28;23369;-68
2022/05/09 00:39:23;;;;;;;464.02;343.58;;;;;;;13.78;46.05;102346.25;688123;28;69420;-68
2022/05/09 00:39:46;;;;;;;462.90;335.48;;;;;;;13.77;46.16;102344.53;687068;28;67527;-68
2022/05/09 00:40:09;;;;;;;462.67;339.48;;;;;;;13.77;46.04;102349.97;688313;28;44331;-67
2022/05/09 00:40:31;;;;;;;465.95;358.50;;;;;;;13.74;46.08;102342.13;687743;28;70030;-68
2022/05/09 00:41:34;;;;;;;474.58;403.23;;;;;;;13.74;46.29;102344.00;684128;28;137264;-68
2022/05/09 00:42:05;;;;;;;466.15;358.35;;;;;;;13.75;46.28;102343.00;686579;28;90398;-68
2022/05/09 00:42:26;;;;;;;467.02;367.20;;;;;;;13.76;46.21;102345.56;685518;28;136163;-68
2022/05/09 00:42:51;;;;;;;470.52;381.45;;;;;;;13.73;46.20;102340.44;689684;28;22472;-68
2022/05/09 00:43:29;;;;;;;468.38;359.40;;;;;;;13.72;46.04;102344.16;685299;28;115123;-68
2022/05/09 00:43:50;;;;;;;466.75;366.52;;;;;;;13.73;46.22;102345.00;685423;28;137526;-68
2022/05/09 00:44:13;;;;;;;468.50;379.65;;;;;;;13.72;45.98;102343.31;689401;28;21279;-67
2022/05/09 00:44:35;;;;;;;461.90;336.50;;;;;;;13.72;46.37;102346.88;687163;28;92124;-68
2022/05/09 00:44:56;;;;;;;461.35;337.38;;;;;;;13.73;45.98;102348.59;688925;28;44368;-67
2022/05/09 00:45:19;;;;;;;463.60;343.10;;;;;;;13.72;46.17;102346.03;689350;28;22415;-68
2022/05/09 00:45:43;;;;;;;466.30;360.77;;;;;;;13.72;45.94;102346.88;686222;28;136357;-67
2022/05/09 00:46:04;;;;;;;465.25;356.42;;;;;;;13.72;46.02;102343.31;689666;28;23454;-68
2022/05/09 00:46:29;;;;;;;462.50;340.40;;;;;;;13.69;46.25;102348.03;688801;28;22407;-68
2022/05/09 00:46:51;;;;;;;469.58;375.63;;;;;;;13.69;46.29;102345.31;686593;28;114964;-67
2022/05/09 00:47:12;;;;;;;468.92;370.33;;;;;;;13.68;46.16;102350.91;688735;28;43749;-68
2022/05/09 00:47:33;;;;;;;467.60;361.65;;;;;;;13.66;46.16;102345.63;689883;28;23495;-67
2022/05/09 00:47:56;;;;;;;466.60;362.25;;;;;;;13.66;46.32;102342.06;689448;28;46275;-68
2022/05/09 00:48:17;;;;;;;460.58;328.98;;;;;;;13.64;46.18;102350.38;688810;28;44135;-68
2022/05/09 00:48:38;;;;;;;464.77;349.55;;;;;;;13.64;46.51;102347.66;690049;28;23394;-68
2022/05/09 00:49:03;;;;;;;469.98;377.63;;;;;;;13.64;46.25;102347.66;690173;28;22385;-67
2022/05/09 00:49:27;;;;;;;467.25;361.30;;;;;;;13.65;46.44;102349.38;686595;28;116309;-67
2022/05/09 00:49:50;;;;;;;466.50;353.10;;;;;;;13.65;46.45;102352.09;688310;28;55802;-68
2022/05/09 00:50:14;;;;;;;474.65;400.92;;;;;;;13.64;46.38;102347.66;688230;28;69443;-68
2022/05/09 00:50:36;;;;;;;476.92;416.58;;;;;;;13.65;46.25;102351.22;687559;28;94287;-68
2022/05/09 00:50:58;;;;;;;474.45;402.55;;;;;;;13.66;46.56;102342.06;689371;28;44387;-67
2022/05/09 00:51:23;;;;;;;470.45;378.75;;;;;;;13.65;46.37;102346.66;688451;28;43919;-67
2022/05/09 00:51:47;;;;;;;476.17;408.77;;;;;;;13.66;46.17;102347.50;684934;28;135450;-67
2022/05/09 00:52:15;;;;;;;474.63;401.25;;;;;;;13.65;46.55;102352.09;686261;28;138470;-68
2022/05/09 00:52:39;;;;;;;467.23;357.15;;;;;;;13.64;46.40;102344.94;686527;28;115721;-67
2022/05/09 00:53:03;;;;;;;460.00;323.85;;;;;;;13.64;46.16;102353.09;687984;28;69431;-67
2022/05/09 00:53:25;;;;;;;460.38;325.85;;;;;;;13.63;46.45;102353.25;687269;28;92280;-67
2022/05/09 00:53:49;;;;;;;461.00;326.50;;;;;;;13.61;46.16;102355.28;686309;28;115673;-68
2022/05/09 00:54:11;;;;;;;457.98;311.00;;;;;;;13.60;46.23;102359.00;689010;28;46253;-67
2022/05/09 00:54:37;;;;;;;456.98;306.92;;;;;;;13.60;46.64;102356.28;690099;28;22485;-67
2022/05/09 00:55:01;;;;;;;455.75;304.13;;;;;;;13.58;46.62;102351.00;685157;28;160099;-68
2022/05/09 00:55:24;;;;;;;455.90;302.05;;;;;;;13.58;46.42;102351.00;687239;28;92268;-68
2022/05/09 00:55:48;;;;;;;455.67;299.75;;;;;;;13.57;46.44;102351.16;688029;28;67523;-67
2022/05/09 00:56:14;;;;;;;452.83;291.50;;;;;;;13.56;46.67;102353.03;687689;28;93150;-68
2022/05/09 00:56:39;;;;;;;451.98;284.75;;;;;;;13.56;46.62;102357.59;685023;28;138266;-67
2022/05/09 00:57:04;;;;;;;454.77;296.05;;;;;;;13.54;46.66;102346.06;687522;28;92288;-67
2022/05/09 00:57:29;;;;;;;456.05;302.00;;;;;;;13.52;46.49;102346.22;685749;28;137742;-68
2022/05/09 00:57:53;;;;;;;458.85;314.55;;;;;;;13.50;46.71;102348.25;687449;28;93677;-69
2022/05/09 00:58:17;;;;;;;458.08;309.58;;;;;;;13.48;46.54;102350.25;689020;28;43565;-68
2022/05/09 00:58:42;;;;;;;458.63;316.23;;;;;;;13.47;46.78;102349.38;687599;28;90474;-68
2022/05/09 00:59:07;;;;;;;461.73;333.10;;;;;;;13.48;46.94;102350.25;687481;28;90418;-68
2022/05/09 00:59:30;;;;;;;464.38;344.20;;;;;;;13.47;46.92;102356.69;684927;28;138252;-66
2022/05/09 00:59:55;;;;;;;466.23;342.52;;;;;;;13.46;46.86;102345.00;687880;28;69382;-67
2022/05/09 01:00:20;;;;;;;467.23;353.83;;;;;;;13.47;46.89;102349.38;687070;28;92205;-66
2022/05/09 01:00:44;;;;;;;464.08;336.63;;;;;;;13.47;46.55;102357.53;686350;28;115091;-68
2022/05/09 01:01:07;;;;;;;462.90;340.42;;;;;;;13.48;46.62;102347.56;686700;28;113543;-68
2022/05/09 01:01:30;;;;;;;459.38;321.02;;;;;;;13.47;46.64;102353.97;687183;28;68569;-68
2022/05/09 01:01:53;;;;;;;461.77;332.05;;;;;;;13.45;46.74;102351.41;688332;28;67473;-69
2022/05/09 01:02:15;;;;;;;459.63;320.15;;;;;;;13.47;46.73;102352.09;688191;28;67481;-68
2022/05/09 01:02:37;;;;;;;460.33;325.40;;;;;;;13.47;46.60;102346.69;689981;28;23427;-68
2022/05/09 01:03:00;;;;;;;461.42;329.40;;;;;;;13.49;46.87;102350.09;688368;28;67478;-67
2022/05/09 01:03:27;;;;;;;461.42;330.98;;;;;;;13.48;46.60;102351.09;687859;28;69229;-68
2022/05/09 01:03:50;;;;;;;465.17;349.65;;;;;;;13.48;46.70;102355.69;686009;28;137864;-68
2022/05/09 01:04:14;;;;;;;458.85;316.30;;;;;;;13.49;46.74;102352.81;688688;28;46353;-68
2022/05/09 01:04:41;;;;;;;461.05;328.35;;;;;;;13.49;46.70;102347.41;687190;28;92293;-67
2022/05/09 01:05:04;;;;;;;464.77;348.23;;;;;;;13.49;46.98;102343.81;685786;28;136378;-67
2022/05/09 01:05:25;;;;;;;461.88;334.15;;;;;;;13.48;46.70;102347.56;688417;28;44548;-66
2022/05/09 01:05:50;;;;;;;464.85;351.85;;;;;;;13.46;47.08;102347.72;688949;28;45297;-67
2022/05/09 01:06:12;;;;;;;465.35;352.38;;;;;;;13.47;47.04;102345.84;686496;28;115096;-67
2022/05/09 01:06:33;;;;;;;468.08;357.52;;;;;;;13.47;46.83;102343.13;687910;28;47453;-67
2022/05/09 01:06:55;;;;;;;467.25;357.08;;;;;;;13.46;46.96;102342.28;689932;28;21566;-68
2022/05/09 01:07:16;;;;;;;464.05;340.88;;;;;;;13.47;46.92;102343.13;688992;28;44380;-68
2022/05/09 01:07:38;;;;;;;463.95;343.58;;;;;;;13.46;46.95;102350.41;689722;28;23375;-68
2022/05/09 01:07:59;;;;;;;458.95;324.58;;;;;;;13.42;46.94;102349.03;689641;28;46607;-67
2022/05/09 01:08:21;;;;;;;466.95;363.58;;;;;;;13.41;46.95;102343.75;690322;28;1789;-67
2022/05/09 01:08:43;;;;;;;473.85;393.05;;;;;;;13.38;46.86;102338.63;687938;28;67338;-67
2022/05/09 01:09:05;;;;;;;470.73;382.70;;;;;;;13.40;46.89;102353.75;690039;28;21559;-67
2022/05/09 01:09:26;;;;;;;472.95;385.23;;;;;;;13.39;46.91;102338.47;688906;28;44364;-68
2022/05/09 01:09:48;;;;;;;473.95;388.00;;;;;;;13.38;47.02;102347.63;688667;28;46406;-68
2022/05/09 01:10:09;;;;;;;471.13;377.75;;;;;;;13.37;46.99;102342.34;689979;28;21544;-68
2022/05/09 01:10:34;;;;;;;460.38;320.80;;;;;;;13.37;47.25;102347.78;689594;28;22036;-68
2022/05/09 01:10:56;;;;;;;464.67;341.40;;;;;;;13.38;46.98;102349.47;686784;28;112673;-69
2022/05/09 01:11:20;;;;;;;461.05;324.52;;;;;;;13.38;47.32;102349.47;689671;28;23341;-68
2022/05/09 01:11:43;;;;;;;467.48;357.50;;;;;;;13.38;47.36;102350.31;686051;28;110990;-68
2022/05/09 01:12:06;;;;;;;476.42;407.83;;;;;;;13.38;47.25;102346.78;687054;28;92669;-69
2022/05/09 01:12:30;;;;;;;472.63;386.58;;;;;;;13.39;47.29;102352.03;688785;28;45341;-68
2022/05/09 01:12:52;;;;;;;465.35;340.02;;;;;;;13.38;47.14;102346.78;687154;28;92303;-67
2022/05/09 01:13:17;;;;;;;472.13;379.85;;;;;;;13.37;47.12;102345.06;688155;28;70378;-68
2022/05/09 01:13:42;;;;;;;469.23;369.85;;;;;;;13.34;47.11;102349.78;687361;28;92283;-67
2022/05/09 01:14:06;;;;;;;465.95;350.85;;;;;;;13.30;47.26;102351.06;686656;28;115111;-67
2022/05/09 01:14:30;;;;;;;473.77;392.00;;;;;;;13.29;47.22;102337.66;689921;28;17449;-69
2022/05/09 01:14:51;;;;;;;464.17;338.00;;;;;;;13.28;47.13;102342.25;687361;28;91944;-68
2022/05/09 01:15:14;;;;;;;464.55;341.75;;;;;;;13.27;47.40;102347.81;689651;28;45175;-67
2022/05/09 01:15:35;;;;;;;472.50;385.77;;;;;;;13.25;47.21;102339.00;689799;28;45228;-68
2022/05/09 01:15:58;;;;;;;463.77;340.23;;;;;;;13.24;47.15;102348.13;690478;28;44390;-68
2022/05/09 01:16:20;;;;;;;466.23;356.38;;;;;;;13.25;47.46;102352.56;689165;28;69482;-69
2022/05/09 01:16:43;;;;;;;473.95;392.65;;;;;;;13.20;47.42;102342.19;688145;28;66392;-67
2022/05/09 01:17:06;;;;;;;469.25;369.83;;;;;;;13.16;47.42;102346.19;687255;28;65845;-68
2022/05/09 01:17:27;;;;;;;467.35;358.35;;;;;;;13.12;47.68;102340.25;688022;28;67489;-69
2022/05/09 01:17:50;;;;;;;473.83;397.88;;;;;;;13.14;47.50;102348.22;689880;28;23413;-68
2022/05/09 01:18:12;;;;;;;475.58;404.35;;;;;;;13.10;47.71;102344.97;687871;28;69443;-68
2022/05/09 01:18:34;;;;;;;476.23;408.80;;;;;;;13.09;47.87;102342.41;689783;28;21600;-69
2022/05/09 01:18:58;;;;;;;475.25;399.35;;;;;;;13.10;47.87;102344.97;687841;28;67516;-68
2022/05/09 01:19:26;;;;;;;472.55;388.27;;;;;;;13.09;47.98;102340.53;686997;28;90723;-68
2022/05/09 01:19:47;;;;;;;475.15;393.92;;;;;;;13.10;47.94;102341.38;685243;28;138572;-68
2022/05/09 01:20:11;;;;;;;473.98;392.67;;;;;;;13.11;47.80;102343.09;690053;28;21542;-67
2022/05/09 01:20:33;;;;;;;472.52;381.60;;;;;;;13.10;47.96;102350.41;687296;28;92272;-67
2022/05/09 01:20:54;;;;;;;475.33;393.55;;;;;;;13.12;47.67;102350.25;689461;28;23701;-68
2022/05/09 01:21:30;;;;;;;473.40;394.60;;;;;;;13.09;47.69;102345.97;690147;28;45339;-68
2022/05/09 01:21:52;;;;;;;473.17;384.33;;;;;;;13.07;48.03;102347.13;684353;28;177554;-68
2022/05/09 01:22:23;;;;;;;467.77;358.48;;;;;;;13.09;47.73;102350.56;689601;28;44379;-68
2022/05/09 01:22:44;;;;;;;472.33;382.85;;;;;;;13.10;47.90;102353.09;686120;28;137648;-68
2022/05/09 01:23:08;;;;;;;465.20;347.52;;;;;;;13.11;47.79;102348.53;689720;28;21528;-68
2022/05/09 01:23:33;;;;;;;469.35;366.52;;;;;;;13.12;48.15;102347.53;684808;28;70356;-68
2022/05/09 01:23:54;;;;;;;464.52;341.90;;;;;;;13.13;47.73;102346.50;683846;28;116725;-68
2022/05/09 01:24:18;;;;;;;467.70;364.80;;;;;;;13.13;47.68;102354.63;687226;28;22492;-68
2022/05/09 01:24:40;;;;;;;463.77;339.30;;;;;;;13.12;47.81;102351.09;683798;28;113363;-68
2022/05/09 01:25:03;;;;;;;461.90;327.10;;;;;;;13.12;47.73;102350.25;685308;28;46449;-68
2022/05/09 01:25:25;;;;;;;469.83;369.08;;;;;;;13.10;47.98;102349.53;685254;28;69966;-68
2022/05/09 01:25:47;;;;;;;470.27;372.20;;;;;;;13.12;47.83;102350.25;686151;28;47461;-68
2022/05/09 01:26:09;;;;;;;462.50;334.45;;;;;;;13.11;48.06;102352.09;686134;28;47224;-68
2022/05/09 01:26:30;;;;;;;470.30;375.17;;;;;;;13.11;47.78;102351.25;686818;28;46299;-68
2022/05/09 01:26:52;;;;;;;467.33;358.73;;;;;;;13.11;47.97;102357.50;689631;28;23450;-68
2022/05/09 01:27:13;;;;;;;467.58;358.95;;;;;;;13.07;47.77;102341.69;688848;28;44354;-67
2022/05/09 01:27:37;;;;;;;465.33;345.98;;;;;;;13.10;47.91;102346.81;689945;28;23400;-67
2022/05/09 01:27:59;;;;;;;473.80;390.02;;;;;;;13.07;48.04;102341.69;687557;28;92966;-68
2022/05/09 01:28:20;;;;;;;471.13;381.50;;;;;;;13.09;48.04;102345.97;690358;28;1902;-68
2022/05/09 01:28:41;;;;;;;471.02;381.35;;;;;;;13.10;47.92;102352.22;689433;28;22402;-68
2022/05/09 01:29:05;;;;;;;468.98;368.90;;;;;;;13.09;48.09;102351.41;689452;28;22330;-67
2022/05/09 01:29:37;;;;;;;458.25;314.55;;;;;;;13.10;47.88;102352.22;686468;28;115377;-68
2022/05/09 01:30:01;;;;;;;462.60;332.73;;;;;;;13.10;47.92;102363.97;685966;28;138618;-68
2022/05/09 01:30:25;;;;;;;457.92;313.33;;;;;;;13.10;48.04;102349.53;687240;28;92267;-68
2022/05/09 01:30:50;;;;;;;460.90;324.65;;;;;;;13.09;47.78;102355.97;687224;28;89409;-68
2022/05/09 01:31:13;;;;;;;463.77;333.52;;;;;;;13.10;47.78;102361.25;685704;28;115754;-67
2022/05/09 01:31:35;;;;;;;473.45;384.52;;;;;;;13.08;48.02;102355.09;687382;28;66210;-68
2022/05/09 01:31:57;;;;;;;464.08;338.45;;;;;;;13.06;47.80;102351.69;688967;28;45008;-68
2022/05/09 01:32:24;;;;;;;467.83;360.10;;;;;;;13.08;47.97;102355.09;688874;28;44353;-68
2022/05/09 01:32:49;;;;;;;464.20;344.05;;;;;;;13.08;47.77;102360.53;685742;28;137325;-67
2022/05/09 01:33:13;;;;;;;461.00;321.20;;;;;;;13.06;48.19;102359.00;686218;28;115153;-68
2022/05/09 01:33:37;;;;;;;461.17;320.02;;;;;;;13.05;48.20;102360.84;686684;28;113933;-68
2022/05/09 01:33:59;;;;;;;458.48;310.70;;;;;;;13.04;47.92;102355.56;687664;28;92891;-68
2022/05/09 01:34:22;;;;;;;458.92;315.75;;;;;;;13.04;48.18;102352.84;689655;28;22082;-67
2022/05/09 01:35:03;;;;;;;461.08;323.17;;;;;;;13.04;48.31;102355.56;688310;28;67503;-68
2022/05/09 01:35:27;;;;;;;459.88;315.75;;;;;;;13.04;47.92;102352.84;685164;28;135803;-68
2022/05/09 01:35:51;;;;;;;457.65;307.10;;;;;;;13.04;48.25;102359.16;687325;28;92267;-68
2022/05/09 01:36:15;;;;;;;467.48;356.67;;;;;;;13.04;48.25;102359.16;686931;28;92252;-67
2022/05/09 01:36:38;;;;;;;464.63;342.20;;;;;;;13.03;48.17;102357.44;685489;28;114445;-68
2022/05/09 01:37:03;;;;;;;466.02;343.75;;;;;;;13.01;47.87;102356.75;688347;28;45264;-67
2022/05/09 01:37:27;;;;;;;464.58;341.17;;;;;;;13.01;48.27;102348.59;688136;28;62099;-67
2022/05/09 01:37:52;;;;;;;468.65;365.00;;;;;;;13.01;48.20;102359.47;688608;28;46050;-68
2022/05/09 01:38:18;;;;;;;470.88;377.38;;;;;;;12.97;48.11;102358.03;685577;28;138612;-68
2022/05/09 01:38:44;;;;;;;464.98;347.58;;;;;;;12.93;48.44;102360.22;685867;28;138776;-68
2022/05/09 01:39:08;;;;;;;462.58;338.20;;;;;;;12.90;48.36;102354.22;685930;28;113565;-67
2022/05/09 01:39:31;;;;;;;459.90;317.20;;;;;;;12.92;48.21;102357.66;685727;28;115092;-67
2022/05/09 01:39:53;;;;;;;461.38;316.92;;;;;;;12.91;48.14;102358.66;688091;28;69408;-68
2022/05/09 01:40:15;;;;;;;465.30;343.58;;;;;;;12.89;48.43;102358.81;688595;28;45365;-68
2022/05/09 01:40:36;;;;;;;475.58;399.60;;;;;;;12.87;48.57;102355.41;689639;28;22257;-68
2022/05/09 01:40:57;;;;;;;474.95;400.02;;;;;;;12.87;48.44;102359.97;689815;28;23412;-68
2022/05/09 01:41:18;;;;;;;472.13;389.10;;;;;;;12.87;48.60;102357.25;689174;28;44453;-68
2022/05/09 01:41:41;;;;;;;471.50;381.95;;;;;;;12.86;48.54;102358.28;688817;28;23332;-67
2022/05/09 01:42:04;;;;;;;469.33;366.60;;;;;;;12.86;48.62;102355.56;687874;28;70299;-68
2022/05/09 01:42:25;;;;;;;472.48;391.35;;;;;;;12.88;48.41;102358.97;688098;28;69422;-67
2022/05/09 01:42:46;;;;;;;471.52;381.92;;;;;;;12.87;48.42;102362.66;689527;28;21518;-68
2022/05/09 01:43:07;;;;;;;474.83;394.52;;;;;;;12.86;48.42;102361.81;689650;28;23482;-68